createdAt,value
2023-02-24T10:02:37.012Z,37.82
2023-02-24T10:03:37.211Z,37.72
2023-02-24T10:04:37.507Z,37.72
2023-02-24T10:05:37.824Z,37.72
2023-02-24T10:06:38.107Z,37.72
2023-02-24T10:07:38.491Z,37.52
2023-02-24T10:08:38.595Z,37.52
2023-02-24T10:09:38.903Z,37.62
2023-02-24T10:10:39.271Z,37.72
2023-02-24T10:11:39.410Z,37.82
2023-02-24T10:12:39.666Z,37.82
2023-02-24T10:13:39.918Z,37.82
2023-02-24T10:14:44.387Z,37.72
2023-02-24T10:15:40.319Z,38.02
2023-02-24T10:16:40.626Z,37.92
2023-02-24T10:17:40.785Z,37.82
2023-02-24T10:18:41.054Z,37.92
2023-02-24T10:19:41.354Z,37.82
2023-02-24T10:20:41.591Z,37.92
2023-02-24T10:21:41.861Z,37.82
2023-02-24T10:22:42.111Z,37.92
2023-02-24T10:23:43.364Z,37.82
2023-02-24T10:24:42.571Z,37.82
2023-02-24T10:25:42.842Z,38.02
2023-02-24T10:26:51.155Z,37.82
2023-02-24T10:27:44.227Z,37.82
2023-02-24T10:28:43.413Z,37.82
2023-02-24T10:29:43.681Z,37.82
2023-02-24T10:30:43.899Z,37.92
2023-02-24T10:31:44.115Z,37.82
2023-02-24T10:32:44.213Z,37.81
2023-02-24T10:33:44.346Z,37.81
2023-02-24T10:34:44.510Z,38.00
2023-02-24T10:35:44.787Z,38.10
2023-02-24T10:36:44.905Z,38.00
2023-02-24T10:37:45.177Z,37.90
2023-02-24T10:38:45.319Z,38.10
2023-02-24T10:39:45.578Z,38.00
2023-02-24T10:40:45.737Z,38.10
2023-02-24T10:41:45.970Z,38.31
2023-02-24T10:42:46.157Z,38.20
2023-02-24T10:43:46.323Z,38.10
2023-02-24T10:44:48.601Z,38.10
2023-02-24T10:45:46.719Z,38.31
2023-02-24T10:46:47.245Z,38.40
2023-02-24T10:47:46.988Z,38.31
2023-02-24T10:48:47.121Z,38.20
2023-02-24T10:49:47.390Z,38.20
2023-02-24T10:50:56.028Z,38.20
2023-02-24T10:51:48.761Z,38.10
2023-02-24T10:52:47.929Z,38.00
2023-02-24T10:53:48.205Z,38.00
2023-02-24T10:54:48.376Z,37.90
2023-02-24T10:55:48.513Z,38.00
2023-02-24T10:56:48.672Z,38.00
2023-02-24T10:57:58.529Z,37.90
2023-02-24T10:58:50.163Z,37.90
2023-02-24T10:59:49.366Z,37.90
2023-02-24T11:00:49.610Z,37.81
2023-02-24T11:01:49.783Z,37.90
2023-02-24T11:02:49.997Z,37.90
2023-02-24T11:03:50.111Z,37.90
2023-02-24T11:04:50.380Z,37.90
2023-02-24T11:05:50.503Z,37.90
2023-02-24T11:06:50.773Z,37.90
2023-02-24T11:07:50.903Z,37.90
2023-02-24T11:08:51.183Z,37.90
2023-02-24T11:09:51.295Z,38.00
2023-02-24T11:10:51.562Z,37.90
2023-02-24T11:11:51.797Z,38.00
2023-02-24T11:13:00.889Z,38.00
2023-02-24T11:13:53.293Z,38.10
2023-02-24T11:14:52.531Z,38.00
2023-02-24T11:15:52.660Z,37.98
2023-02-24T11:16:52.884Z,38.00
2023-02-24T11:17:53.158Z,37.98
2023-02-24T11:18:53.284Z,37.98
2023-02-24T11:19:53.419Z,37.88
2023-02-24T11:20:53.673Z,37.98
2023-02-24T11:21:53.795Z,37.98
2023-02-24T11:22:54.053Z,37.98
2023-02-24T11:23:54.183Z,37.88
2023-02-24T11:24:54.457Z,37.88
2023-02-24T11:25:54.587Z,37.88
2023-02-24T11:26:54.844Z,37.88
2023-02-24T11:27:55.075Z,37.88
2023-02-24T11:28:55.334Z,37.88
2023-02-24T11:29:55.566Z,37.88
2023-02-24T11:30:55.804Z,37.88
2023-02-24T11:31:56.089Z,37.88
2023-02-24T11:32:56.149Z,37.88
2023-02-24T11:33:56.248Z,37.88
2023-02-24T11:34:56.514Z,37.88
2023-02-24T11:35:56.634Z,37.88
2023-02-24T11:36:57.066Z,37.88
2023-02-24T11:37:57.017Z,37.88
2023-02-24T11:39:05.601Z,37.88
2023-02-24T11:39:58.405Z,37.88
2023-02-24T11:40:57.592Z,37.88
2023-02-24T11:41:57.828Z,37.88
2023-02-24T11:42:57.997Z,37.88
2023-02-24T11:43:58.125Z,37.88
2023-02-24T11:44:58.382Z,37.88
2023-02-24T11:45:58.563Z,37.98
2023-02-24T11:46:58.704Z,37.88
2023-02-24T11:47:58.832Z,37.98
2023-02-24T11:48:58.986Z,37.97
2023-02-24T11:49:59.127Z,38.17
2023-02-24T11:50:59.389Z,38.17
2023-02-24T11:51:59.534Z,38.17
2023-02-24T11:52:59.805Z,38.07
